Terminal Aerodrome Forecast
Issued by NWS Sioux Falls, SD

Home | Current Version | Previous Version | Text Only | Print | Product List | Glossary Off
Versions: 1 2 3 4 5 6 7 8 9 10 11 12 13

000
FTUS43 KFSD 290520
TAFHON
TAF
KHON 290520Z 2906/3006 15005KT P6SM SKC
      TEMPO 2911/2913 4SM BR
     FM291400 17007KT P6SM SKC
     FM291800 17013KT P6SM SKC=

USA.gov is the U.S. government's official web portal to all federal, state and local government web resources and services.